createdAt,value
2017-09-26T00:00:14.234Z,95.67
2017-09-26T00:02:42.659Z,95.97
2017-09-26T00:05:11.179Z,95.93
2017-09-26T00:07:39.664Z,96.07
2017-09-26T00:10:08.116Z,96.14
2017-09-26T00:12:37.317Z,96.47
2017-09-26T00:15:06.527Z,96.22
2017-09-26T00:17:35.842Z,96.28
2017-09-26T00:20:04.277Z,96.51
2017-09-26T00:22:32.737Z,96.72
2017-09-26T00:25:01.196Z,96.21
2017-09-26T00:27:29.652Z,95.98
2017-09-26T00:29:58.852Z,96.40
2017-09-26T00:32:28.058Z,96.50
2017-09-26T00:34:56.487Z,96.40
2017-09-26T00:37:24.945Z,96.45
2017-09-26T00:39:53.380Z,96.54
2017-09-26T00:42:22.660Z,96.41
2017-09-26T00:44:51.206Z,96.51
2017-09-26T00:47:19.783Z,96.03
2017-09-26T00:49:48.215Z,96.11
2017-09-26T00:52:16.664Z,96.07
2017-09-26T00:54:45.115Z,95.87
2017-09-26T00:57:13.556Z,96.21
2017-09-26T00:59:42.016Z,96.32
2017-09-26T01:02:10.443Z,96.07
2017-09-26T01:04:39.655Z,96.18
2017-09-26T01:07:12.860Z,96.56
2017-09-26T01:09:41.303Z,96.37
2017-09-26T01:12:09.828Z,96.66
2017-09-26T01:14:38.276Z,96.65
2017-09-26T01:17:07.708Z,96.89
2017-09-26T01:19:36.180Z,96.11
2017-09-26T01:22:04.607Z,96.79
2017-09-26T01:24:33.061Z,96.46
2017-09-26T01:27:01.503Z,96.36
2017-09-26T01:29:30.703Z,96.12
2017-09-26T01:32:00.040Z,96.07
2017-09-26T01:34:28.463Z,96.14
2017-09-26T01:36:56.923Z,95.62
2017-09-26T01:39:25.360Z,95.75
2017-09-26T01:41:54.683Z,95.86
2017-09-26T01:44:23.163Z,95.66
2017-09-26T01:46:51.608Z,95.71
2017-09-26T01:49:20.818Z,95.73
2017-09-26T01:51:50.031Z,95.99
2017-09-26T01:54:18.458Z,95.44
2017-09-26T01:56:48.715Z,95.40
2017-09-26T01:59:18.828Z,95.44
2017-09-26T02:01:47.347Z,95.34
2017-09-26T02:04:15.843Z,95.20
2017-09-26T02:06:44.416Z,95.22
2017-09-26T02:09:12.852Z,95.33
2017-09-26T02:11:41.375Z,95.04
2017-09-26T02:14:09.861Z,94.60
2017-09-26T02:16:38.290Z,95.05
2017-09-26T02:19:06.748Z,95.21
2017-09-26T02:21:35.203Z,95.10
2017-09-26T02:24:03.651Z,95.17
2017-09-26T02:26:32.091Z,94.80
2017-09-26T02:29:00.651Z,94.97
2017-09-26T02:31:29.079Z,95.07
2017-09-26T02:33:57.535Z,95.11
2017-09-26T02:36:25.994Z,94.74
2017-09-26T02:38:54.476Z,94.82
2017-09-26T02:41:22.971Z,94.63
2017-09-26T02:43:51.413Z,94.41
2017-09-26T02:46:20.637Z,94.41
2017-09-26T02:48:49.071Z,94.39
2017-09-26T02:51:18.301Z,94.52
2017-09-26T02:53:47.505Z,94.47
2017-09-26T02:56:15.965Z,94.51
2017-09-26T02:58:45.199Z,94.36
2017-09-26T03:01:13.646Z,94.55
2017-09-26T03:03:42.879Z,94.39
2017-09-26T03:06:11.368Z,94.46
2017-09-26T03:08:39.803Z,94.38
2017-09-26T03:11:08.244Z,94.66
2017-09-26T03:13:36.711Z,94.52
2017-09-26T03:16:05.155Z,94.44
2017-09-26T03:18:34.380Z,94.90
2017-09-26T03:21:02.808Z,94.46
2017-09-26T03:23:31.263Z,95.08
2017-09-26T03:25:59.705Z,94.82
2017-09-26T03:28:28.927Z,94.87
2017-09-26T03:30:57.360Z,94.63
2017-09-26T03:33:25.891Z,94.71
2017-09-26T03:35:54.319Z,94.53
2017-09-26T03:38:22.756Z,94.67
2017-09-26T03:40:51.208Z,94.80
2017-09-26T03:43:20.440Z,94.91
2017-09-26T03:45:48.891Z,94.37
2017-09-26T03:48:18.096Z,94.56
2017-09-26T03:50:47.414Z,94.59
2017-09-26T03:53:15.839Z,94.69
2017-09-26T03:55:44.287Z,94.60
2017-09-26T03:58:12.720Z,94.59
2017-09-26T04:00:41.184Z,94.40
2017-09-26T04:03:09.620Z,94.64
2017-09-26T04:05:38.208Z,94.74
2017-09-26T04:08:06.639Z,94.59
2017-09-26T04:10:35.579Z,94.44
2017-09-26T04:13:04.036Z,94.61
2017-09-26T04:15:33.268Z,94.71
2017-09-26T04:18:01.722Z,94.54
2017-09-26T04:20:30.932Z,94.33
2017-09-26T04:22:59.431Z,94.39
2017-09-26T04:25:27.868Z,94.34
2017-09-26T04:27:56.387Z,94.39
2017-09-26T04:30:24.881Z,94.49
2017-09-26T04:32:53.332Z,94.44
2017-09-26T04:35:22.543Z,94.48
2017-09-26T04:37:51.050Z,94.49
2017-09-26T04:40:19.510Z,93.99
2017-09-26T04:42:47.980Z,93.88
2017-09-26T04:45:17.176Z,94.12
2017-09-26T04:47:46.376Z,93.91
2017-09-26T04:50:15.590Z,93.91
2017-09-26T04:52:44.032Z,93.90
2017-09-26T04:55:12.555Z,94.13
2017-09-26T04:57:40.988Z,93.91
2017-09-26T05:00:09.444Z,94.19
2017-09-26T05:02:37.880Z,93.92
2017-09-26T05:05:07.108Z,94.08
2017-09-26T05:07:35.551Z,94.23
2017-09-26T05:10:04.776Z,94.35
2017-09-26T05:12:33.211Z,93.82
2017-09-26T05:15:01.688Z,93.62
2017-09-26T05:17:30.128Z,93.66
2017-09-26T05:19:58.612Z,93.73
2017-09-26T05:22:27.092Z,93.55
2017-09-26T05:24:55.520Z,93.73
2017-09-26T05:27:23.984Z,93.72
2017-09-26T05:29:52.420Z,93.56
2017-09-26T05:32:21.639Z,93.58
2017-09-26T05:34:50.087Z,93.41
2017-09-26T05:37:19.334Z,93.86
2017-09-26T05:39:47.769Z,94.04
2017-09-26T05:42:16.962Z,93.76
2017-09-26T05:44:46.286Z,93.87
2017-09-26T05:47:14.707Z,93.82
2017-09-26T05:49:43.146Z,93.82
2017-09-26T05:52:11.640Z,93.97
2017-09-26T05:54:40.097Z,93.88
2017-09-26T05:57:09.301Z,93.95
2017-09-26T05:59:38.619Z,93.89
2017-09-26T06:02:07.042Z,94.11
2017-09-26T06:04:35.583Z,93.81
2017-09-26T06:07:04.020Z,93.91
2017-09-26T06:09:32.546Z,93.89
2017-09-26T06:12:00.967Z,93.76
2017-09-26T06:14:29.421Z,93.46
2017-09-26T06:16:57.865Z,93.66
2017-09-26T06:19:27.186Z,93.64
2017-09-26T06:21:55.680Z,93.46
2017-09-26T06:24:24.102Z,93.58
2017-09-26T06:26:52.547Z,93.39
2017-09-26T06:29:20.991Z,93.48
2017-09-26T06:31:50.208Z,93.35
2017-09-26T06:34:18.649Z,93.23
2017-09-26T06:36:47.091Z,93.20
2017-09-26T06:39:15.515Z,93.21
2017-09-26T06:41:43.969Z,93.10
2017-09-26T06:44:12.433Z,93.33
2017-09-26T06:46:40.874Z,93.02
2017-09-26T06:49:10.128Z,92.85
2017-09-26T06:51:38.640Z,92.63
2017-09-26T06:54:08.428Z,92.84
2017-09-26T06:56:36.888Z,92.60
2017-09-26T06:59:05.331Z,92.66
2017-09-26T07:01:35.060Z,92.24
2017-09-26T07:04:03.514Z,92.64
2017-09-26T07:06:31.943Z,92.60
2017-09-26T07:09:00.381Z,93.06
2017-09-26T07:11:28.807Z,93.29
2017-09-26T07:13:57.255Z,93.33
2017-09-26T07:16:26.456Z,93.73
2017-09-26T07:18:55.672Z,93.51
2017-09-26T07:21:24.108Z,93.45
2017-09-26T07:23:52.587Z,93.46
2017-09-26T07:26:21.021Z,93.46
2017-09-26T07:28:49.457Z,93.51
2017-09-26T07:31:17.918Z,93.40
2017-09-26T07:33:46.348Z,93.48
2017-09-26T07:36:15.672Z,93.06
2017-09-26T07:38:44.119Z,92.52
2017-09-26T07:41:13.456Z,92.63
2017-09-26T07:43:41.930Z,91.90
2017-09-26T07:46:10.372Z,92.16
2017-09-26T07:48:38.808Z,91.78
2017-09-26T07:51:07.291Z,91.79
2017-09-26T07:53:35.719Z,91.61
2017-09-26T07:56:04.201Z,91.97
2017-09-26T07:58:32.706Z,91.69
2017-09-26T08:01:02.163Z,90.94
2017-09-26T08:03:31.277Z,91.31
2017-09-26T08:06:00.461Z,90.73
2017-09-26T08:08:29.799Z,90.37
2017-09-26T08:10:58.990Z,90.28
2017-09-26T08:13:28.216Z,90.87
2017-09-26T08:15:56.648Z,89.80
2017-09-26T08:18:25.100Z,89.42
2017-09-26T08:20:53.528Z,89.01
2017-09-26T08:23:21.988Z,88.66
2017-09-26T08:25:50.424Z,88.08
2017-09-26T08:28:18.874Z,87.72
2017-09-26T08:30:48.071Z,87.33
2017-09-26T08:33:17.321Z,86.55
2017-09-26T08:35:45.787Z,87.06
2017-09-26T08:38:14.219Z,87.87
2017-09-26T08:40:42.666Z,87.15
2017-09-26T08:43:11.101Z,87.13
2017-09-26T08:45:40.323Z,86.78
2017-09-26T08:48:08.746Z,86.52
2017-09-26T08:50:37.204Z,86.55
2017-09-26T08:53:05.635Z,86.42
2017-09-26T08:55:34.095Z,86.13
2017-09-26T08:58:02.634Z,85.95
2017-09-26T09:00:31.084Z,86.62
2017-09-26T09:03:00.319Z,86.33
2017-09-26T09:05:28.776Z,85.97
2017-09-26T09:07:57.971Z,85.60
2017-09-26T09:10:27.190Z,85.39
2017-09-26T09:12:55.711Z,85.66
2017-09-26T09:15:24.263Z,85.33
2017-09-26T09:17:52.686Z,85.73
2017-09-26T09:20:21.231Z,86.23
2017-09-26T09:22:49.667Z,86.75
2017-09-26T09:25:18.100Z,86.59
2017-09-26T09:27:46.567Z,87.17
2017-09-26T09:30:14.992Z,87.19
2017-09-26T09:32:43.450Z,86.51
2017-09-26T09:35:11.927Z,86.93
2017-09-26T09:37:40.387Z,87.29
2017-09-26T09:40:08.816Z,87.12
2017-09-26T09:42:37.266Z,87.28
2017-09-26T09:45:05.708Z,86.95
2017-09-26T09:47:34.932Z,87.07
2017-09-26T09:50:03.354Z,86.54
2017-09-26T09:52:31.914Z,85.78
2017-09-26T09:55:00.355Z,86.46
2017-09-26T09:57:29.692Z,85.48
2017-09-26T09:59:58.121Z,85.14
2017-09-26T10:02:26.560Z,85.35
2017-09-26T10:04:55.022Z,85.33
2017-09-26T10:07:23.511Z,84.76
2017-09-26T10:09:51.958Z,85.04
2017-09-26T10:12:20.385Z,84.46
2017-09-26T10:14:48.840Z,83.42
2017-09-26T10:17:18.055Z,83.17
2017-09-26T10:19:46.502Z,82.99
2017-09-26T10:22:15.735Z,82.81
2017-09-26T10:24:44.202Z,82.56
2017-09-26T10:27:13.400Z,82.59
2017-09-26T10:29:42.724Z,83.16
2017-09-26T10:32:11.168Z,83.76
2017-09-26T10:34:40.403Z,82.98
2017-09-26T10:37:08.888Z,82.64
2017-09-26T10:39:37.340Z,80.74
2017-09-26T10:42:06.561Z,81.77
2017-09-26T10:44:34.996Z,79.71
2017-09-26T10:47:03.522Z,79.28
2017-09-26T10:49:32.021Z,79.63
2017-09-26T10:52:00.480Z,79.54
2017-09-26T10:54:28.966Z,78.75
2017-09-26T10:56:57.410Z,79.06
2017-09-26T10:59:25.949Z,79.93
2017-09-26T11:01:54.399Z,80.15
2017-09-26T11:04:23.611Z,80.86
2017-09-26T11:06:52.085Z,80.86
2017-09-26T11:09:21.279Z,81.09
2017-09-26T11:11:50.477Z,81.04
2017-09-26T11:14:19.696Z,81.03
2017-09-26T11:16:48.137Z,81.17
2017-09-26T11:19:16.577Z,81.80
2017-09-26T11:21:45.012Z,81.35
2017-09-26T11:24:14.218Z,80.88
2017-09-26T11:26:43.407Z,79.98
2017-09-26T11:29:12.627Z,80.30
2017-09-26T11:31:41.119Z,80.55
2017-09-26T11:34:09.581Z,79.35
2017-09-26T11:36:38.776Z,79.54
2017-09-26T11:39:07.988Z,79.41
2017-09-26T11:41:36.444Z,79.71
2017-09-26T11:44:05.644Z,79.07
2017-09-26T11:46:34.869Z,79.50
2017-09-26T11:49:03.299Z,79.77
2017-09-26T11:51:31.749Z,80.36
2017-09-26T11:54:00.184Z,80.64
2017-09-26T11:56:28.631Z,80.75
2017-09-26T11:58:57.059Z,79.61
2017-09-26T12:01:26.297Z,79.96
2017-09-26T12:03:54.767Z,79.26
2017-09-26T12:06:23.256Z,79.38
2017-09-26T12:08:51.712Z,79.47
2017-09-26T12:11:20.909Z,79.16
2017-09-26T12:13:55.648Z,79.14
2017-09-26T12:16:24.136Z,78.40
2017-09-26T12:18:52.588Z,78.29
2017-09-26T12:21:21.782Z,78.16
2017-09-26T12:23:50.234Z,78.20
2017-09-26T12:26:18.779Z,78.75
2017-09-26T12:28:47.258Z,78.56
2017-09-26T12:31:15.687Z,77.81
2017-09-26T12:33:44.144Z,78.45
2017-09-26T12:36:12.611Z,77.88
2017-09-26T12:38:41.068Z,78.18
2017-09-26T12:41:10.263Z,77.94
2017-09-26T12:43:39.485Z,77.18
2017-09-26T12:46:07.916Z,77.97
2017-09-26T12:48:36.456Z,78.46
2017-09-26T12:51:04.939Z,78.60
2017-09-26T12:53:33.382Z,79.05
2017-09-26T12:56:02.620Z,79.69
2017-09-26T12:58:31.113Z,79.10
2017-09-26T13:00:59.579Z,79.58
2017-09-26T13:03:28.059Z,79.40
2017-09-26T13:05:56.520Z,79.53
2017-09-26T13:08:25.710Z,79.37
2017-09-26T13:10:54.944Z,80.13
2017-09-26T13:13:23.408Z,79.86
2017-09-26T13:15:52.728Z,80.81
2017-09-26T13:18:21.177Z,81.34
2017-09-26T13:20:50.404Z,81.13
2017-09-26T13:23:18.831Z,81.35
2017-09-26T13:25:47.270Z,80.82
2017-09-26T13:28:15.753Z,81.25
2017-09-26T13:30:44.203Z,81.21
2017-09-26T13:33:13.452Z,81.23
2017-09-26T13:35:42.011Z,81.26
2017-09-26T13:38:10.490Z,81.13
2017-09-26T13:40:38.924Z,81.41
2017-09-26T13:43:07.375Z,81.49
2017-09-26T13:45:35.807Z,81.50
2017-09-26T13:48:05.039Z,81.95
2017-09-26T13:50:33.472Z,82.23
2017-09-26T13:53:01.923Z,81.88
2017-09-26T13:55:30.361Z,82.28
2017-09-26T13:57:59.584Z,82.30
2017-09-26T14:00:28.019Z,82.17
2017-09-26T14:02:56.627Z,82.31
2017-09-26T14:05:25.820Z,82.65
2017-09-26T14:07:55.036Z,82.80
2017-09-26T14:10:23.523Z,82.20
2017-09-26T14:12:52.004Z,81.77
2017-09-26T14:15:20.426Z,82.35
2017-09-26T14:17:48.867Z,82.02
2017-09-26T14:20:17.325Z,81.77
2017-09-26T14:22:46.523Z,82.68
2017-09-26T14:25:15.741Z,82.13
2017-09-26T14:27:44.248Z,82.33
2017-09-26T14:30:12.696Z,82.01
2017-09-26T14:32:41.894Z,81.41
2017-09-26T14:35:11.114Z,81.87
2017-09-26T14:37:39.615Z,81.12
2017-09-26T14:40:08.064Z,81.17
2017-09-26T14:42:36.496Z,81.74
2017-09-26T14:45:04.952Z,81.51
2017-09-26T14:47:33.383Z,81.51
2017-09-26T14:50:02.603Z,81.78
2017-09-26T14:52:31.806Z,81.52
2017-09-26T14:55:00.254Z,81.95
2017-09-26T14:57:30.229Z,81.86
2017-09-26T14:59:58.796Z,81.63
2017-09-26T15:02:27.226Z,81.48
2017-09-26T15:04:55.763Z,81.27
2017-09-26T15:07:24.254Z,81.32
2017-09-26T15:09:52.724Z,81.28
2017-09-26T15:12:21.177Z,82.23
2017-09-26T15:14:50.372Z,82.54
2017-09-26T15:17:20.210Z,82.06
2017-09-26T15:19:48.652Z,82.20
2017-09-26T15:22:17.103Z,82.08
2017-09-26T15:24:45.531Z,82.46
2017-09-26T15:27:14.751Z,82.26
2017-09-26T15:29:43.244Z,81.87
2017-09-26T15:32:11.696Z,82.22
2017-09-26T15:34:40.924Z,82.05
2017-09-26T15:37:09.372Z,81.08
2017-09-26T15:39:38.598Z,81.09
2017-09-26T15:42:07.087Z,81.01
2017-09-26T15:44:35.576Z,80.61
2017-09-26T15:47:04.028Z,80.70
2017-09-26T15:49:33.256Z,80.50
2017-09-26T15:52:01.731Z,80.61
2017-09-26T15:54:30.164Z,80.79
2017-09-26T15:56:58.643Z,80.74
2017-09-26T15:59:27.073Z,80.93
2017-09-26T16:01:55.559Z,81.41
2017-09-26T16:04:24.050Z,81.29
2017-09-26T16:06:52.484Z,81.51
2017-09-26T16:09:21.713Z,81.40
2017-09-26T16:11:50.152Z,81.88
2017-09-26T16:14:18.606Z,82.03
2017-09-26T16:16:47.030Z,81.50
2017-09-26T16:19:16.252Z,81.69
2017-09-26T16:21:45.603Z,81.75
2017-09-26T16:24:14.061Z,81.74
2017-09-26T16:26:42.501Z,81.97
2017-09-26T16:29:11.736Z,81.88
2017-09-26T16:31:40.173Z,82.21
2017-09-26T16:34:09.423Z,82.53
2017-09-26T16:36:37.847Z,82.48
2017-09-26T16:39:06.372Z,82.62
2017-09-26T16:41:34.974Z,82.83
2017-09-26T16:44:03.402Z,83.50
2017-09-26T16:46:32.628Z,83.41
2017-09-26T16:49:01.086Z,83.74
2017-09-26T16:51:30.419Z,84.02
2017-09-26T16:53:58.847Z,84.14
2017-09-26T16:56:27.297Z,84.44
2017-09-26T16:58:55.732Z,84.92
2017-09-26T17:01:24.968Z,85.01
2017-09-26T17:03:53.395Z,84.68
2017-09-26T17:06:21.856Z,84.52
2017-09-26T17:08:50.297Z,84.80
2017-09-26T17:11:18.754Z,84.88
2017-09-26T17:13:47.956Z,84.73
2017-09-26T17:16:17.180Z,84.56
2017-09-26T17:18:45.671Z,84.47
2017-09-26T17:21:14.155Z,84.56
2017-09-26T17:23:42.630Z,84.79
2017-09-26T17:26:11.059Z,84.80
2017-09-26T17:28:39.518Z,85.02
2017-09-26T17:31:07.976Z,84.91
2017-09-26T17:33:36.431Z,84.79
2017-09-26T17:36:05.660Z,84.91
2017-09-26T17:38:34.144Z,85.16
2017-09-26T17:41:02.572Z,85.45
2017-09-26T17:43:31.028Z,85.46
2017-09-26T17:45:59.463Z,85.38
2017-09-26T17:48:28.784Z,85.57
2017-09-26T17:50:57.224Z,85.24
2017-09-26T17:53:25.740Z,85.41
2017-09-26T17:55:54.169Z,85.46
2017-09-26T17:58:22.715Z,85.49
2017-09-26T18:00:51.209Z,85.51
2017-09-26T18:03:19.664Z,85.28
2017-09-26T18:05:48.099Z,85.54
2017-09-26T18:08:16.559Z,85.35
2017-09-26T18:10:45.015Z,85.25
2017-09-26T18:13:13.484Z,85.04
2017-09-26T18:15:42.674Z,85.05
2017-09-26T18:18:11.872Z,84.89
2017-09-26T18:20:41.087Z,85.14
2017-09-26T18:23:09.521Z,84.75
2017-09-26T18:25:38.060Z,84.72
2017-09-26T18:28:06.548Z,84.93
2017-09-26T18:30:35.024Z,85.12
2017-09-26T18:33:03.454Z,85.00
2017-09-26T18:35:31.907Z,85.30
2017-09-26T18:38:00.341Z,84.79
2017-09-26T18:40:29.680Z,85.13
2017-09-26T18:42:58.116Z,85.23
2017-09-26T18:45:26.576Z,85.15
2017-09-26T18:47:55.116Z,85.55
2017-09-26T18:50:23.700Z,85.52
2017-09-26T18:52:52.131Z,86.01
2017-09-26T18:55:20.559Z,85.96
2017-09-26T18:57:49.043Z,85.98
2017-09-26T19:00:17.475Z,86.36
2017-09-26T19:02:45.936Z,86.34
2017-09-26T19:05:14.385Z,86.25
2017-09-26T19:07:42.876Z,86.39
2017-09-26T19:10:11.314Z,86.58
2017-09-26T19:12:40.551Z,87.04
2017-09-26T19:15:08.980Z,87.12
2017-09-26T19:17:37.431Z,87.12
2017-09-26T19:20:06.320Z,87.30
2017-09-26T19:22:35.799Z,87.91
2017-09-26T19:25:04.227Z,88.00
2017-09-26T19:27:32.681Z,88.11
2017-09-26T19:30:01.120Z,88.23
2017-09-26T19:32:30.455Z,88.08
2017-09-26T19:34:58.934Z,88.17
2017-09-26T19:37:27.364Z,88.51
2017-09-26T19:39:55.814Z,88.26
2017-09-26T19:42:24.251Z,88.42
2017-09-26T19:44:54.195Z,88.81
2017-09-26T19:47:22.631Z,88.60
2017-09-26T19:49:51.846Z,88.33
2017-09-26T19:52:21.047Z,88.89
2017-09-26T19:54:50.268Z,89.45
2017-09-26T19:57:18.705Z,89.58
2017-09-26T19:59:47.147Z,89.59
2017-09-26T20:02:15.575Z,89.74
2017-09-26T20:04:44.041Z,89.33
2017-09-26T20:07:12.476Z,89.42
2017-09-26T20:09:40.928Z,89.68
2017-09-26T20:12:10.159Z,89.87
2017-09-26T20:14:38.647Z,90.23
2017-09-26T20:17:07.123Z,89.46
2017-09-26T20:19:35.609Z,89.47
2017-09-26T20:22:04.487Z,89.53
2017-09-26T20:24:32.979Z,90.06
2017-09-26T20:27:01.432Z,89.88
2017-09-26T20:29:30.637Z,89.85
2017-09-26T20:31:59.960Z,89.89
2017-09-26T20:34:28.442Z,90.01
2017-09-26T20:36:56.895Z,90.14
2017-09-26T20:39:26.097Z,90.35
2017-09-26T20:41:55.315Z,90.08
2017-09-26T20:44:23.748Z,90.19
2017-09-26T20:46:52.293Z,90.40
2017-09-26T20:49:20.735Z,90.11
2017-09-26T20:51:49.946Z,90.04
2017-09-26T20:54:19.138Z,90.32
2017-09-26T20:56:48.361Z,90.74
2017-09-26T20:59:16.852Z,90.43
2017-09-26T21:01:45.318Z,90.44
2017-09-26T21:04:13.828Z,90.48
2017-09-26T21:06:42.255Z,90.31
2017-09-26T21:09:10.807Z,90.57
2017-09-26T21:11:39.234Z,90.74
2017-09-26T21:14:08.452Z,90.74
2017-09-26T21:16:36.929Z,90.53
2017-09-26T21:19:05.372Z,90.32
2017-09-26T21:21:33.899Z,90.37
2017-09-26T21:24:02.388Z,89.96
2017-09-26T21:26:30.815Z,89.95
2017-09-26T21:28:59.269Z,89.90
2017-09-26T21:31:27.708Z,89.78
2017-09-26T21:33:56.196Z,89.64
2017-09-26T21:36:24.696Z,89.81
2017-09-26T21:38:53.130Z,89.54
2017-09-26T21:41:21.662Z,89.85
2017-09-26T21:43:50.104Z,89.59
2017-09-26T21:46:19.431Z,89.68
2017-09-26T21:48:47.928Z,89.43
2017-09-26T21:51:16.407Z,89.75
2017-09-26T21:53:44.842Z,89.60
2017-09-26T21:56:13.307Z,89.68
2017-09-26T21:58:41.748Z,89.40
2017-09-26T22:01:10.200Z,89.52
2017-09-26T22:03:39.428Z,89.44
2017-09-26T22:06:07.899Z,89.88
2017-09-26T22:08:36.330Z,90.64
2017-09-26T22:11:04.871Z,90.71
2017-09-26T22:13:33.324Z,90.77
2017-09-26T22:16:02.519Z,91.01
2017-09-26T22:18:31.742Z,90.80
2017-09-26T22:21:00.167Z,90.79
2017-09-26T22:23:28.720Z,91.16
2017-09-26T22:25:57.156Z,90.76
2017-09-26T22:28:27.120Z,90.77
2017-09-26T22:30:55.610Z,90.44
2017-09-26T22:33:24.072Z,90.26
2017-09-26T22:35:52.507Z,90.51
2017-09-26T22:38:20.964Z,89.99
2017-09-26T22:40:49.428Z,90.68
2017-09-26T22:43:17.899Z,90.94
2017-09-26T22:45:46.336Z,91.15
2017-09-26T22:48:14.767Z,91.37
2017-09-26T22:50:43.224Z,91.78
2017-09-26T22:53:12.448Z,91.38
2017-09-26T22:55:40.931Z,91.91
2017-09-26T22:58:09.370Z,91.85
2017-09-26T23:00:37.822Z,92.01
2017-09-26T23:03:06.285Z,91.80
2017-09-26T23:05:34.740Z,92.52
2017-09-26T23:08:03.934Z,92.70
2017-09-26T23:10:33.176Z,92.77
2017-09-26T23:13:01.603Z,93.24
2017-09-26T23:15:30.808Z,93.02
2017-09-26T23:18:00.032Z,93.10
2017-09-26T23:20:28.459Z,92.69
2017-09-26T23:22:56.916Z,93.29
2017-09-26T23:25:25.386Z,92.87
2017-09-26T23:27:53.838Z,93.07
2017-09-26T23:30:23.026Z,93.28
2017-09-26T23:32:54.710Z,93.23
2017-09-26T23:35:23.200Z,93.63
2017-09-26T23:37:51.676Z,93.73
2017-09-26T23:40:20.117Z,93.67
2017-09-26T23:42:48.555Z,93.67
2017-09-26T23:45:17.014Z,93.75
2017-09-26T23:47:45.452Z,93.65
2017-09-26T23:50:13.907Z,94.16
2017-09-26T23:52:42.362Z,94.07
2017-09-26T23:55:10.840Z,93.67
2017-09-26T23:57:39.267Z,93.70
